Egmondgracht — PDWG — position and weather

sailwx.info

Track history (hours):
 
Tides and Currents Weather Stations Pressure Air Temp Water Temp Dewpoint Dewpoint Depression Visibility Wind Speed Wind Dir Waves Ship Positions

Egmondgracht

Last reported at 2016-Sep-16 15:19 UTC. Time now 2016-Sep-29 06:44 UTC.
Position N 07°37' W 079°30'.
Warning: this ship's position is 12 days out of date.

Length 136 m; beam 19 m; draft 9 m.

Type: Cargo ship. MMSI: 245716000.

Date/timePositionNaut miles runAvg speedWind from/ knotsBaromVisibWave heightAir tempDewpointWater temp
2016-Sep-16 15:19N 07°37' W 079°30'3912.0
2016-Sep-16 12:05N 08°15' W 079°27'2510.0
2016-Sep-16 09:34N 08°40' W 079°28'19 8.7
2016-Sep-16 07:22N 08°58' W 079°35'8 2.2
2016-Sep-16 03:31N 09°04' W 079°40'6 5.2
2016-Sep-16 02:27N 09°07' W 079°45'13 7.1
2016-Sep-16 00:33N 09°16' W 079°55'3 1.5
2016-Sep-15 22:33N 09°19' W 079°55'3 2.8
2016-Sep-15 21:32N 09°22' W 079°56'0 0.0
2016-Sep-15 20:33N 09°22' W 079°56'0 0.0
2016-Sep-15 18:33N 09°22' W 079°56'21 3.5
2016-Sep-15 12:32N 09°42' W 079°50'1110.7
2016-Sep-15 11:29N 09°47' W 079°40'  
Track history (hours):
 
Tides and Currents Weather Stations Pressure Air Temp Water Temp Dewpoint Dewpoint Depression Visibility Wind Speed Wind Dir Waves Ship Positions

Egmondgracht

Last reported at 2016-Sep-16 15:19 UTC. Time now 2016-Sep-29 06:44 UTC.
Position N 07°37' W 079°30'.
Warning: this ship's position is 12 days out of date.

Length 136 m; beam 19 m; draft 9 m.

Type: Cargo ship. MMSI: 245716000.

Date/timePositionNaut miles runAvg speedWind from/ knotsBaromVisibWave heightAir tempDewpointWater temp
2016-Sep-16 15:19N 07°37' W 079°30'3912.0
2016-Sep-16 12:05N 08°15' W 079°27'2510.0
2016-Sep-16 09:34N 08°40' W 079°28'19 8.7
2016-Sep-16 07:22N 08°58' W 079°35'8 2.2
2016-Sep-16 03:31N 09°04' W 079°40'6 5.2
2016-Sep-16 02:27N 09°07' W 079°45'13 7.1
2016-Sep-16 00:33N 09°16' W 079°55'3 1.5
2016-Sep-15 22:33N 09°19' W 079°55'3 2.8
2016-Sep-15 21:32N 09°22' W 079°56'0 0.0
2016-Sep-15 20:33N 09°22' W 079°56'0 0.0
2016-Sep-15 18:33N 09°22' W 079°56'21 3.5
2016-Sep-15 12:32N 09°42' W 079°50'1110.7
2016-Sep-15 11:29N 09°47' W 079°40'  

Dump ship's entire track history